Data for 06/24/2007

Time Sea-Level Adjusted Pressure Absolute Pressure Temperature Relative Humidity Dew Point   
(mb) (inHg) (mb) (inHg) (C) (F) (%) (C) (F)
00:05 1013 29.91 842 24.86 18.7 65.7 51 8.5 47.3
00:10 1013 29.91 842 24.86 18.3 64.9 53 8.5 47.3
00:15 1013 29.91 842 24.86 17.3 63.1 44 5.2 41.3
00:20 1013 29.91 842 24.86 17.6 63.7 41 4.3 39.8
00:25 1013 29.91 842 24.86 17.6 63.6 41 4.1 39.4
00:30 1013 29.91 842 24.86 17.4 63.3 40 4 39.1
00:35 1013 29.91 842 24.86 17.6 63.7 38 3.2 37.8
00:40 1013 29.91 842 24.86 18.2 64.7 35 2.5 36.5
00:45 1013 29.91 842 24.86 18.6 65.4 35 2.9 37.3
00:50 1013 29.91 842 24.86 18.6 65.4 40 5 41
00:55 1013 29.91 842 24.86 18.4 65.1 40 4.8 40.6
01:00 1013 29.91 842 24.86 18.9 65.9 52 8.9 47.9
01:05 1013 29.91 842 24.86 18.4 65.1 54 9.1 48.4
01:10 1013 29.91 842 24.86 17.9 64.1 56 9.1 48.4
01:15 1013 29.91 842 24.86 17.7 63.8 56 9 48.1
01:20 1013 29.91 842 24.86 17.4 63.4 56 8.5 47.4
01:25 1012 29.88 842 24.86 16.9 62.4 55 8 46.4
01:30 1012 29.88 842 24.86 16.1 61 55 7.3 45.1
01:35 1012 29.88 842 24.86 15.7 60.2 57 7.3 45.2
01:40 1012 29.88 842 24.86 15.5 59.9 58 7.3 45.2
01:45 1012 29.88 841 24.83 15.4 59.7 56 6.8 44.3
01:50 1012 29.88 841 24.83 15.2 59.3 55 6.2 43.1
01:55 1012 29.88 841 24.83 15 59 54 5.9 42.7
02:00 1012 29.88 841 24.83 15.2 59.3 52 5.4 41.7
02:05 1012 29.88 842 24.86 15.6 60.1 50 5.3 41.6
02:10 1012 29.88 842 24.86 16.1 60.9 54 6.9 44.4
02:15 1012 29.88 841 24.83 16.3 61.4 57 7.9 46.2
02:20 1012 29.88 841 24.83 16.4 61.4 61 9 48.2
02:25 1012 29.88 841 24.83 16.9 62.4 60 9.2 48.6
02:30 1012 29.88 841 24.83 17.4 63.3 59 9.5 49
02:35 1012 29.88 841 24.83 17.4 63.4 60 9.7 49.5
02:40 1012 29.88 841 24.83 17.5 63.4 61 9.9 49.8
02:45 1012 29.88 841 24.83 17.4 63.4 61 10 50
02:50 1012 29.88 841 24.83 17.3 63.2 62 10 49.9
02:55 1012 29.88 841 24.83 17.5 63.4 61 9.9 49.8
03:00 1012 29.88 841 24.83 17.6 63.6 61 10 50
03:05 1012 29.88 841 24.83 17.7 63.8 61 10.1 50.2
03:10 1012 29.88 841 24.83 17.6 63.6 61 10.2 50.3
03:15 1012 29.88 841 24.83 17.6 63.7 61 10.2 50.3
03:20 1012 29.88 841 24.83 17.7 63.8 61 10.1 50.2
03:25 1012 29.88 841 24.83 17.7 63.8 61 10.2 50.3
03:30 1012 29.88 841 24.83 17.6 63.7 61 10.1 50.2
03:35 1012 29.88 841 24.83 17.6 63.7 61 10.2 50.3
03:40 1012 29.88 841 24.83 17.6 63.6 61 10.1 50.3
03:45 1012 29.88 841 24.83 17.5 63.6 62 10.2 50.3
03:50 1012 29.88 841 24.83 17.5 63.5 61 10 50
03:55 1012 29.88 841 24.83 17.6 63.6 62 10.2 50.4
04:00 1012 29.88 841 24.83 17.5 63.5 62 10.1 50.2
04:05 1011 29.85 841 24.83 17.5 63.4 62 10.2 50.3
04:10 1011 29.85 841 24.83 17.4 63.3 62 10.1 50.2
04:15 1012 29.88 841 24.83 17.4 63.2 62 10 50
04:20 1012 29.88 841 24.83 17.4 63.3 61 9.9 49.9
04:25 1012 29.88 841 24.83 17.4 63.3 62 10.1 50.2
04:30 1011 29.85 841 24.83 17.3 63.1 62 10 49.9
04:35 1011 29.85 841 24.83 17.1 62.9 62 10 49.9
04:40 1011 29.85 841 24.83 17.1 62.8 62 9.9 49.8
04:45 1011 29.85 841 24.83 17 62.6 62 9.9 49.7
04:50 1012 29.88 841 24.83 17 62.7 62 9.8 49.6
04:55 1011 29.85 841 24.83 17.2 62.9 61 9.7 49.5
05:00 1011 29.85 841 24.83 17.2 62.9 61 9.7 49.4
05:05 1012 29.88 841 24.83 17.2 62.9 61 9.7 49.5
05:10 1012 29.88 841 24.83 17.1 62.8 61 9.7 49.4
05:15 1012 29.88 841 24.83 17 62.6 61 9.5 49.1
05:20 1012 29.88 841 24.83 16.7 62 56 8.1 46.5
05:25 1012 29.88 841 24.83 16.3 61.3 55 7.5 45.4
05:30 1012 29.88 841 24.83 15.8 60.5 55 7 44.6
05:35 1012 29.88 842 24.86 15.5 59.9 55 6.7 44
05:40 1012 29.88 842 24.86 15.4 59.7 56 6.6 43.9
05:45 1012 29.88 841 24.83 15.6 60 55 6.7 44.1
05:50 1012 29.88 841 24.83 15.7 60.2 56 7.1 44.8
05:55 1012 29.88 842 24.86 15.6 60 55 6.7 44.1
06:00 1013 29.91 842 24.86 15.5 60 55 6.5 43.8
06:05 1013 29.91 842 24.86 15.6 60.2 54 6.5 43.7
06:10 1012 29.88 842 24.86 15.6 60.2 54 6.5 43.6
06:15 1012 29.88 842 24.86 15.7 60.3 54 6.5 43.6
06:20 1012 29.88 842 24.86 15.7 60.3 54 6.5 43.7
06:25 1012 29.88 842 24.86 15.7 60.2 54 6.4 43.5
06:30 1013 29.91 842 24.86 15.8 60.5 53 6.3 43.3
06:35 1013 29.91 842 24.86 15.9 60.6 53 6.3 43.4
06:40 1013 29.91 842 24.86 16 60.9 54 6.7 44.1
06:45 1013 29.91 842 24.86 16 60.9 55 7.1 44.7
06:50 1013 29.91 842 24.86 15.9 60.6 56 7.1 44.9
06:55 1013 29.91 842 24.86 15.7 60.3 55 6.8 44.3
07:00 1013 29.91 842 24.86 15.4 59.8 58 7.3 45.1
07:05 1013 29.91 842 24.86 15.3 59.5 57 6.8 44.3
07:10 1013 29.91 842 24.86 15.1 59.3 57 6.9 44.4
07:15 1013 29.91 842 24.86 15.3 59.5 56 6.7 44.1
07:20 1013 29.91 842 24.86 15.6 60.1 57 7.1 44.8
07:25 1013 29.91 842 24.86 15.6 60.1 58 7.5 45.6
07:30 1013 29.91 842 24.86 15.3 59.5 58 7.2 44.9
07:35 1013 29.91 842 24.86 15.6 60 56 6.9 44.4
07:40 1013 29.91 842 24.86 16.3 61.3 54 7 44.6
07:45 1013 29.91 842 24.86 16.3 61.3 55 7.3 45.2
07:50 1013 29.91 842 24.86 16.7 62 53 7 44.6
07:55 1013 29.91 842 24.86 17.2 62.9 52 7.3 45.1
08:00 1013 29.91 842 24.86 17.1 62.9 52 7.2 45
08:05 1013 29.91 842 24.86 16.9 62.4 53 7.4 45.4
08:10 1013 29.91 843 24.89 16.6 61.8 54 7.4 45.3
08:15 1013 29.91 843 24.89 16.7 62.1 53 7.2 45
08:20 1013 29.91 843 24.89 17.1 62.7 53 7.5 45.5
08:25 1013 29.91 843 24.89 17 62.7 53 7.4 45.4
08:30 1014 29.94 843 24.89 17.5 63.5 51 7.5 45.5
08:35 1014 29.94 843 24.89 16.9 62.3 56 8.1 46.6
08:40 1014 29.94 843 24.89 16.5 61.7 54 7.2 45
08:45 1014 29.94 843 24.89 17 62.6 54 7.8 46
08:50 1014 29.94 843 24.89 16.7 62.1 52 6.8 44.3
08:55 1014 29.94 843 24.89 17.5 63.5 49 6.8 44.3
09:00 1014 29.94 843 24.89 17.6 63.7 51 7.6 45.6
09:05 1014 29.94 843 24.89 17.4 63.4 51 7.2 45
09:10 1014 29.94 843 24.89 17.7 63.8 50 7.1 44.8
09:15 1014 29.94 843 24.89 18 64.3 48 6.8 44.3
09:20 1014 29.94 843 24.89 18.4 65.1 49 7.7 45.9
09:25 1014 29.94 843 24.89 18.3 64.9 49 7.6 45.8
09:30 1014 29.94 843 24.89 18.2 64.7 48 7.1 44.9
09:35 1014 29.94 843 24.89 17.9 64.3 49 7.1 44.9
09:40 1014 29.94 843 24.89 18.5 65.3 46 6.9 44.3
09:45 1014 29.94 843 24.89 18.7 65.7 47 7.4 45.2
09:50 1014 29.94 843 24.89 19.1 66.3 44 6.6 43.9
09:55 1014 29.94 843 24.89 19 66.2 44 6.5 43.7
10:00 1014 29.94 843 24.89 18.5 65.3 44 6.3 43.4
10:05 1014 29.94 843 24.89 18.9 66 44 6.5 43.7
10:10 1014 29.94 843 24.89 19.2 66.5 43 6.6 43.8
10:15 1014 29.94 843 24.89 18.5 65.3 45 6.5 43.7
10:20 1014 29.94 843 24.89 18.6 65.4 43 5.8 42.5
10:25 1014 29.94 843 24.89 18.9 66 43 6.3 43.3
10:30 1014 29.94 843 24.89 19.8 67.6 40 6.1 42.9
10:35 1014 29.94 843 24.89 19.8 67.7 39 5.7 42.3
10:40 1014 29.94 843 24.89 20.6 69 39 6.3 43.3
10:45 1014 29.94 843 24.89 20.2 68.3 41 6.6 43.9
10:50 1014 29.94 843 24.89 19.7 67.5 40 6 42.7
10:55 1014 29.94 843 24.89 20.2 68.3 41 6.7 44.1
11:00 1014 29.94 843 24.89 20.5 68.8 41 6.8 44.3
11:05 1014 29.94 843 24.89 20.2 68.4 41 6.9 44.4
11:10 1014 29.94 843 24.89 21.2 70.1 36 5.9 42.5
11:15 1014 29.94 843 24.89 20.8 69.5 41 7.1 44.8
11:20 1014 29.94 843 24.89 20.2 68.3 40 6.4 43.5
11:25 1014 29.94 843 24.89 21 69.7 38 6.2 43.2
11:30 1014 29.94 843 24.89 22.1 71.8 34 5.8 42.5
11:35 1014 29.94 843 24.89 22.5 72.5 34 6.1 43
11:40 1014 29.94 843 24.89 22.3 72.2 34 5.9 42.7
11:45 1014 29.94 843 24.89 22.5 72.4 34 6.2 43.1
11:50 1014 29.94 843 24.89 22.8 73 33 5.8 42.4
11:55 1014 29.94 843 24.89 22.1 71.7 34 5.9 42.6
12:00 1014 29.94 843 24.89 22.2 71.9 35 6 42.8
12:05 1014 29.94 843 24.89 23 73.4 34 6.5 43.8
12:10 1014 29.94 843 24.89 23.1 73.6 33 6.3 43.4
12:15 1013 29.91 843 24.89 23.6 74.6 32 6.3 43.3
12:20 1013 29.91 843 24.89 23.4 74 33 6.6 43.8
12:25 1013 29.91 843 24.89 23.4 74.1 33 6.4 43.5
12:30 1013 29.91 842 24.86 23.7 74.6 32 6.3 43.4
12:35 1013 29.91 842 24.86 23.9 75 31 6.1 43
12:40 1013 29.91 842 24.86 23.2 73.8 33 6.5 43.6
12:45 1013 29.91 842 24.86 22.9 73.2 35 6.6 43.9
12:50 1013 29.91 842 24.86 23.1 73.5 34 6.8 44.2
12:55 1013 29.91 842 24.86 23.5 74.4 32 6.2 43.2
13:00 1013 29.91 842 24.86 23.9 75 33 6.7 44.1
13:05 1013 29.91 842 24.86 24.4 76 32 6.7 44.1
13:10 1013 29.91 842 24.86 24.3 75.7 33 7.4 45.3
13:15 1013 29.91 842 24.86 24.4 75.8 32 7.1 44.7
13:20 1013 29.91 842 24.86 24 75.2 32 6.7 44.1
13:25 1013 29.91 842 24.86 24.2 75.6 32 6.7 44
13:30 1013 29.91 842 24.86 23.8 74.9 33 6.7 44
13:35 1013 29.91 842 24.86 23.8 74.8 32 6.5 43.7
13:40 1013 29.91 842 24.86 23.9 75.1 33 6.8 44.3
13:45 1013 29.91 842 24.86 24.6 76.2 31 6.8 44.2
13:50 1013 29.91 842 24.86 24.2 75.6 32 6.6 43.9
13:55 1012 29.88 842 24.86 24.6 76.2 32 6.8 44.3
14:00 1012 29.88 842 24.86 24.4 75.8 34 7.9 46.2
14:05 1012 29.88 842 24.86 24.1 75.3 34 7.3 45.1
14:10 1012 29.88 842 24.86 24.5 76.1 34 7.7 45.9
14:15 1012 29.88 841 24.83 24.3 75.7 33 7.3 45.1
14:20 1012 29.88 842 24.86 25.1 77.3 31 7.1 44.7
14:25 1012 29.88 841 24.83 25.4 77.8 29 6.3 43.4
14:30 1012 29.88 841 24.83 25.4 77.8 30 6.9 44.4
14:35 1012 29.88 841 24.83 25.2 77.3 30 6.7 44
14:40 1012 29.88 841 24.83 24.9 76.9 30 6.3 43.4
14:45 1012 29.88 841 24.83 25.5 78 29 6.6 44
14:50 1012 29.88 841 24.83 26.2 79.1 25 5.1 41.2
14:55 1012 29.88 841 24.83 26.3 79.4 24 4.6 40.4
15:00 1012 29.88 841 24.83 25.2 77.4 26 4.7 40.4
15:05 1012 29.88 841 24.83 26.1 78.9 22 3.1 37.5
15:10 1012 29.88 841 24.83 26.6 79.8 25 5 41.1
15:15 1012 29.88 841 24.83 26.1 79.1 26 5.5 42
15:20 1012 29.88 841 24.83 24.6 76.4 27 4.8 40.6
15:25 1012 29.88 841 24.83 25.4 77.7 26 4.8 40.6
15:30 1012 29.88 841 24.83 26.4 79.5 22 3.6 38.4
15:35 1012 29.88 841 24.83 26.4 79.4 24 4.5 40.1
15:40 1012 29.88 841 24.83 27.1 80.9 23 4.7 40.5
15:45 1011 29.85 841 24.83 27.2 81 23 4.6 40.2
15:50 1011 29.85 841 24.83 27.5 81.4 21 3.3 38
15:55 1011 29.85 841 24.83 27.7 81.9 21 3.6 38.5
16:00 1011 29.85 840 24.81 27.6 81.6 23 4.8 40.6
16:05 1011 29.85 840 24.81 27.7 81.9 20 3.3 37.9
16:10 1011 29.85 840 24.81 27.8 82 20 3.1 37.7
16:15 1011 29.85 840 24.81 27.4 81.2 21 3.4 38
16:20 1011 29.85 840 24.81 27.7 81.8 22 4.3 39.8
16:25 1011 29.85 840 24.81 27.3 81.1 22 3.8 38.8
16:30 1011 29.85 840 24.81 27.6 81.7 19 2.4 36.3
16:35 1011 29.85 840 24.81 27.2 81 20 2.4 36.4
16:40 1011 29.85 840 24.81 27 80.6 21 3.3 37.9
16:45 1011 29.85 840 24.81 27.2 81 20 2.6 36.7
16:50 1011 29.85 840 24.81 27.2 80.9 21 3.2 37.8
16:55 1011 29.85 840 24.81 27.6 81.7 20 2.7 36.9
17:00 1011 29.85 840 24.81 27.2 81 21 3.4 38
17:05 1011 29.85 840 24.81 27.9 82.2 19 2.7 36.8
17:10 1011 29.85 840 24.81 28.2 82.7 20 3.4 38.2
17:15 1010 29.83 840 24.81 28.1 82.5 21 4.2 39.5
17:20 1010 29.83 840 24.81 28.8 83.8 19 3 37.3
17:25 1010 29.83 840 24.81 28.9 84 18 2.5 36.4
17:30 1010 29.83 840 24.81 28.9 84 18 2.2 36
17:35 1010 29.83 840 24.81 28.4 83.2 22 5.2 41.4
17:40 1010 29.83 840 24.81 28.2 82.7 20 3.7 38.6
17:45 1010 29.83 839 24.78 28 82.3 21 3.9 39
17:50 1010 29.83 839 24.78 28.6 83.4 19 2.8 37
17:55 1010 29.83 839 24.78 29.2 84.6 18 2.9 37.3
18:00 1010 29.83 839 24.78 29 84.3 18 3 37.4
18:05 1010 29.83 839 24.78 28.8 83.9 17 1.9 35.5
18:10 1010 29.83 839 24.78 28.4 83.1 18 2.1 35.8
18:15 1010 29.83 839 24.78 28 82.3 20 3.1 37.6
18:20 1010 29.83 839 24.78 27.8 82 20 2.8 37
18:25 1010 29.83 839 24.78 27.8 82.1 19 2.4 36.3
18:30 1010 29.83 839 24.78 28.5 83.3 19 2.8 37
18:35 1010 29.83 839 24.78 28.2 82.8 19 2.8 37.1
18:40 1010 29.83 839 24.78 28.7 83.7 17 1.6 34.9
18:45 1010 29.83 839 24.78 28.5 83.3 18 2.5 36.5
18:50 1010 29.83 839 24.78 28.3 83 16 0.4 32.7
18:55 1010 29.83 839 24.78 28.4 83.2 15 -0.6 31
19:00 1010 29.83 839 24.78 28.7 83.7 15 -0.2 31.7
19:05 1010 29.83 839 24.78 28.5 83.2 16 0.9 33.6
19:10 1010 29.83 839 24.78 27.7 81.9 16 -0.2 31.6
19:15 1010 29.83 839 24.78 27.5 81.4 14 -1.8 28.8
19:20 1010 29.83 839 24.78 26.9 80.5 14 -2.5 27.5
19:25 1010 29.83 839 24.78 26.4 79.4 14 -3 26.6
19:30 1010 29.83 839 24.78 26 78.9 13 -3.9 25
19:35 1010 29.83 839 24.78 25.8 78.5 13 -4.8 23.3
19:40 1010 29.83 839 24.78 25.6 78.1 12 -5.3 22.5
19:45 1010 29.83 839 24.78 25.6 78 12 -5.7 21.7
19:50 1010 29.83 839 24.78 25.7 78.2 11 -6.8 19.7
19:55 1010 29.83 839 24.78 25.9 78.5 11 -6.6 20.2
20:00 1010 29.83 839 24.78 25.9 78.6 11 -6.6 20.1
20:05 1010 29.83 839 24.78 25.7 78.3 11 -7 19.5
20:10 1010 29.83 839 24.78 25.8 78.4 9 -9.8 14.4
20:15 1010 29.83 839 24.78 26 78.7 10 -8.3 17.1
20:20 1010 29.83 840 24.81 25.7 78.3 10 -7.9 17.8
20:25 1010 29.83 840 24.81 25.4 77.8 10 -8 17.6
20:30 1010 29.83 840 24.81 25.1 77.2 11 -7.5 18.6
20:35 1011 29.85 840 24.81 25 77.1 10 -7.9 17.7
20:40 1011 29.85 840 24.81 25 77 11 -7.6 18.3
20:45 1011 29.85 840 24.81 24.8 76.6 10 -9 15.8
20:50 1011 29.85 840 24.81 25 77 10 -8.7 16.3
20:55 1011 29.85 840 24.81 24.8 76.7 10 -8.9 16.1
21:00 1011 29.85 840 24.81 24.7 76.4 10 -8.3 17.1
21:05 1011 29.85 840 24.81 24.6 76.2 10 -8.7 16.4
21:10 1011 29.85 840 24.81 24.4 75.9 10 -8.9 16
21:15 1011 29.85 840 24.81 24.4 75.8 10 -8.8 16.2
21:20 1011 29.85 840 24.81 24.3 75.7 10 -9.1 15.5
21:25 1011 29.85 840 24.81 24.2 75.5 10 -8.8 16.1
21:30 1011 29.85 840 24.81 24.1 75.4 10 -9.1 15.5
21:35 1011 29.85 840 24.81 24.5 76 10 -8.8 16.2
21:40 1011 29.85 840 24.81 24.3 75.8 12 -7 19.3
21:45 1011 29.85 840 24.81 23.8 74.8 11 -8.4 17
21:50 1011 29.85 840 24.81 23.9 75 10 -9 15.8
21:55 1011 29.85 840 24.81 23.9 75 11 -8.3 17
22:00 1011 29.85 841 24.83 23.8 74.8 11 -8.1 17.4
22:05 1012 29.88 841 24.83 23 73.3 14 -5.7 21.7
22:10 1012 29.88 841 24.83 21.9 71.4 15 -5.6 22
22:15 1012 29.88 841 24.83 21.6 70.9 15 -6 21.3
22:20 1012 29.88 841 24.83 21.6 70.9 16 -5.4 22.3
22:25 1012 29.88 841 24.83 21.8 71.2 16 -5.4 22.4
22:30 1012 29.88 841 24.83 21.7 71 23 -0.3 31.5
22:35 1012 29.88 842 24.86 20.5 68.9 29 2.1 35.9
22:40 1013 29.91 842 24.86 19.5 67.1 32 2.7 36.9
22:45 1013 29.91 842 24.86 18.8 65.9 34 2.7 36.9
22:50 1013 29.91 842 24.86 18 64.5 39 4.1 39.4
22:55 1013 29.91 842 24.86 17.4 63.3 45 5.5 41.9
23:00 1013 29.91 842 24.86 16.8 62.3 49 6.3 43.3
23:05 1013 29.91 842 24.86 16.5 61.6 52 6.6 43.9
23:10 1013 29.91 842 24.86 16 60.9 54 6.9 44.4
23:15 1013 29.91 843 24.89 15.9 60.6 55 6.9 44.3
23:20 1013 29.91 843 24.89 16 60.7 56 7.2 44.9
23:25 1014 29.94 843 24.89 16.1 61 56 7.3 45.2
23:30 1014 29.94 843 24.89 16.1 61.1 55 7.3 45.1
23:35 1014 29.94 843 24.89 15.8 60.5 57 7.5 45.5
23:40 1014 29.94 843 24.89 15.7 60.3 56 7.2 44.9
23:45 1014 29.94 843 24.89 15.9 60.7 55 7.1 44.7
23:50 1014 29.94 843 24.89 16.1 60.9 55 7.2 45
23:55 1014 29.94 843 24.89 16 60.8 55 6.9 44.4
24:00 1014 29.94 843 24.89 16 60.8 54 6.9 44.4